createdAt,value
2022-11-02T00:01:20.339Z,9.00
2022-11-02T00:02:53.815Z,8.95
2022-11-02T00:04:27.128Z,8.94
2022-11-02T00:06:00.252Z,8.92
2022-11-02T00:07:32.460Z,8.90
2022-11-02T00:09:07.019Z,8.91
2022-11-02T00:10:40.415Z,8.86
2022-11-02T00:12:13.712Z,8.82
2022-11-02T00:13:46.976Z,8.77
2022-11-02T00:15:20.752Z,8.76
2022-11-02T00:16:54.399Z,8.75
2022-11-02T00:18:27.667Z,8.71
2022-11-02T00:20:00.242Z,8.72
2022-11-02T00:21:33.755Z,8.74
2022-11-02T00:23:07.936Z,8.76
2022-11-02T00:24:42.883Z,8.79
2022-11-02T00:26:16.859Z,8.80
2022-11-02T00:27:50.553Z,8.76
2022-11-02T00:29:24.443Z,8.74
2022-11-02T00:30:58.052Z,8.74
2022-11-02T00:32:31.254Z,8.76
2022-11-02T00:34:04.435Z,8.77
2022-11-02T00:35:38.528Z,8.77
2022-11-02T00:37:12.886Z,8.77
2022-11-02T00:38:46.115Z,8.74
2022-11-02T00:40:20.903Z,8.71
2022-11-02T00:41:54.250Z,8.69
2022-11-02T00:43:27.356Z,8.64
2022-11-02T00:45:00.501Z,8.54
2022-11-02T00:46:33.727Z,8.50
2022-11-02T00:48:08.193Z,8.52
2022-11-02T00:49:41.774Z,8.48
2022-11-02T00:51:15.653Z,8.43
2022-11-02T00:52:49.929Z,8.39
2022-11-02T00:54:27.554Z,8.36
2022-11-02T00:56:03.610Z,8.24
2022-11-02T00:57:36.999Z,8.24
2022-11-02T00:59:10.653Z,8.20
2022-11-02T01:00:44.015Z,8.21
2022-11-02T01:02:17.393Z,8.19
2022-11-02T01:03:50.692Z,8.15
2022-11-02T01:05:23.904Z,8.19
2022-11-02T01:06:57.164Z,8.21
2022-11-02T01:08:30.390Z,8.20
2022-11-02T01:10:05.377Z,8.20
2022-11-02T01:11:41.659Z,8.19
2022-11-02T01:13:15.215Z,8.18
2022-11-02T01:14:48.992Z,8.16
2022-11-02T01:16:22.587Z,8.19
2022-11-02T01:17:56.479Z,8.16
2022-11-02T01:19:29.858Z,8.11
2022-11-02T01:21:03.872Z,8.09
2022-11-02T01:22:37.033Z,8.08
2022-11-02T01:24:10.461Z,8.07
2022-11-02T01:25:46.977Z,8.07
2022-11-02T01:27:21.548Z,8.02
2022-11-02T01:28:55.013Z,7.96
2022-11-02T01:30:28.193Z,7.96
2022-11-02T01:32:01.530Z,7.89
2022-11-02T01:33:34.955Z,7.84
2022-11-02T01:35:10.387Z,7.81
2022-11-02T01:36:46.598Z,7.80
2022-11-02T01:38:20.097Z,7.77
2022-11-02T01:39:54.191Z,7.80
2022-11-02T01:41:27.359Z,7.82
2022-11-02T01:43:00.977Z,7.89
2022-11-02T01:44:36.712Z,7.93
2022-11-02T01:46:17.899Z,7.94
2022-11-02T01:47:51.119Z,7.99
2022-11-02T01:49:24.188Z,7.94
2022-11-02T01:50:58.815Z,7.90
2022-11-02T01:52:35.540Z,7.87
2022-11-02T01:54:12.465Z,7.84
2022-11-02T01:55:45.915Z,7.83
2022-11-02T01:57:22.404Z,7.85
2022-11-02T01:59:02.627Z,7.87
2022-11-02T02:00:35.846Z,7.88
2022-11-02T02:02:14.728Z,7.88
2022-11-02T02:03:49.645Z,7.91
2022-11-02T02:05:25.572Z,7.88
2022-11-02T02:07:00.295Z,7.79
2022-11-02T02:08:34.147Z,7.76
2022-11-02T02:10:07.225Z,7.73
2022-11-02T02:11:41.777Z,7.73
2022-11-02T02:13:16.995Z,7.71
2022-11-02T02:14:52.364Z,7.67
2022-11-02T02:16:36.547Z,7.68
2022-11-02T02:18:17.082Z,7.67
2022-11-02T02:19:56.622Z,7.66
2022-11-02T02:21:41.674Z,7.57
2022-11-02T02:23:39.362Z,7.59
2022-11-02T02:25:43.463Z,7.59
2022-11-02T02:27:21.882Z,7.57
2022-11-02T02:29:02.768Z,7.60
2022-11-02T02:30:41.893Z,7.50
2022-11-02T02:32:19.600Z,7.59
2022-11-02T02:33:57.555Z,7.58
2022-11-02T02:35:39.867Z,7.57
2022-11-02T02:37:20.204Z,7.54
2022-11-02T02:39:01.935Z,7.46
2022-11-02T02:40:38.626Z,7.41
2022-11-02T02:42:16.246Z,7.40
2022-11-02T02:43:53.341Z,7.36
2022-11-02T02:45:34.548Z,7.33
2022-11-02T02:47:15.300Z,7.31
2022-11-02T02:48:49.934Z,7.28
2022-11-02T02:50:27.083Z,7.27
2022-11-02T02:52:01.636Z,7.25
2022-11-02T02:53:39.879Z,7.23
2022-11-02T02:55:17.856Z,7.20
2022-11-02T02:56:56.147Z,7.19
2022-11-02T02:58:32.082Z,7.15
2022-11-02T03:00:06.229Z,7.19
2022-11-02T03:01:46.100Z,7.18
2022-11-02T03:03:23.728Z,7.17
2022-11-02T03:04:56.114Z,7.11
2022-11-02T03:06:32.185Z,7.08
2022-11-02T03:08:12.842Z,7.07
2022-11-02T03:09:52.102Z,7.04
2022-11-02T03:11:27.190Z,7.07
2022-11-02T03:13:11.840Z,7.09
2022-11-02T03:14:57.012Z,7.11
2022-11-02T03:16:45.264Z,7.12
2022-11-02T03:18:35.470Z,7.12
2022-11-02T03:20:18.310Z,7.11
2022-11-02T03:22:00.224Z,7.07
2022-11-02T03:23:38.640Z,7.02
2022-11-02T03:25:19.124Z,7.02
2022-11-02T03:27:06.555Z,7.02
2022-11-02T03:28:53.578Z,6.98
2022-11-02T03:30:30.579Z,6.91
2022-11-02T03:32:10.477Z,6.82
2022-11-02T03:33:49.491Z,6.65
2022-11-02T03:35:30.157Z,6.61
2022-11-02T03:37:11.992Z,6.53
2022-11-02T03:38:48.931Z,6.49
2022-11-02T03:40:28.441Z,6.42
2022-11-02T03:42:05.062Z,6.41
2022-11-02T03:43:43.097Z,6.34
2022-11-02T03:45:19.988Z,6.34
2022-11-02T03:46:59.588Z,6.41
2022-11-02T03:48:39.559Z,6.43
2022-11-02T03:50:17.016Z,6.41
2022-11-02T03:51:51.259Z,6.35
2022-11-02T03:53:32.587Z,6.33
2022-11-02T03:55:09.842Z,6.32
2022-11-02T03:56:47.885Z,6.35
2022-11-02T03:58:21.084Z,6.35
2022-11-02T03:59:54.394Z,6.35
2022-11-02T04:01:28.897Z,6.34
2022-11-02T04:03:04.572Z,6.37
2022-11-02T04:04:51.170Z,6.41
2022-11-02T04:06:27.986Z,6.43
2022-11-02T04:08:19.483Z,6.45
2022-11-02T04:09:53.008Z,6.43
2022-11-02T04:11:44.328Z,6.40
2022-11-02T04:13:37.616Z,6.38
2022-11-02T04:15:11.612Z,6.42
2022-11-02T04:16:43.972Z,6.41
2022-11-02T04:18:40.291Z,6.40
2022-11-02T04:20:15.307Z,6.38
2022-11-02T04:22:03.271Z,6.32
2022-11-02T04:23:55.925Z,6.36
2022-11-02T04:25:29.477Z,6.34
2022-11-02T04:27:34.733Z,6.31
2022-11-02T04:29:09.209Z,6.28
2022-11-02T04:30:43.081Z,6.28
2022-11-02T04:32:36.848Z,6.31
2022-11-02T04:34:10.984Z,6.27
2022-11-02T04:35:45.115Z,6.29
2022-11-02T04:37:33.059Z,6.31
2022-11-02T04:39:06.368Z,6.35
2022-11-02T04:40:39.197Z,6.38
2022-11-02T04:42:12.870Z,6.39
2022-11-02T04:43:49.387Z,6.39
2022-11-02T04:45:24.763Z,6.42
2022-11-02T04:46:59.017Z,6.43
2022-11-02T04:48:36.228Z,6.41
2022-11-02T04:50:10.119Z,6.39
2022-11-02T04:51:47.309Z,6.42
2022-11-02T04:53:24.966Z,6.43
2022-11-02T04:54:59.131Z,6.46
2022-11-02T04:56:32.547Z,6.47
2022-11-02T04:58:06.294Z,6.46
2022-11-02T04:59:39.718Z,6.44
2022-11-02T05:01:16.838Z,6.46
2022-11-02T05:02:51.598Z,6.51
2022-11-02T05:04:27.278Z,6.52
2022-11-02T05:06:01.392Z,6.51
2022-11-02T05:07:36.957Z,6.44
2022-11-02T05:09:11.411Z,6.44
2022-11-02T05:10:48.512Z,6.42
2022-11-02T05:12:26.614Z,6.35
2022-11-02T05:14:02.396Z,6.29
2022-11-02T05:15:36.429Z,6.28
2022-11-02T05:17:13.442Z,6.28
2022-11-02T05:18:46.771Z,6.32
2022-11-02T05:20:23.526Z,6.31
2022-11-02T05:21:56.670Z,6.30
2022-11-02T05:23:32.716Z,6.34
2022-11-02T05:25:07.363Z,6.41
2022-11-02T05:26:40.769Z,6.48
2022-11-02T05:28:14.844Z,6.53
2022-11-02T05:29:48.352Z,6.57
2022-11-02T05:31:22.442Z,6.57
2022-11-02T05:32:58.006Z,6.62
2022-11-02T05:34:31.359Z,6.61
2022-11-02T05:36:06.593Z,6.62
2022-11-02T05:37:42.398Z,6.57
2022-11-02T05:39:17.151Z,6.52
2022-11-02T05:40:53.638Z,6.52
2022-11-02T05:42:27.266Z,6.52
2022-11-02T05:44:00.737Z,6.49
2022-11-02T05:45:35.980Z,6.46
2022-11-02T05:47:09.146Z,6.52
2022-11-02T05:48:42.613Z,6.55
2022-11-02T05:50:15.897Z,6.70
2022-11-02T05:51:49.315Z,6.76
2022-11-02T05:53:22.431Z,6.86
2022-11-02T05:54:56.975Z,6.88
2022-11-02T05:56:30.149Z,7.04
2022-11-02T05:58:02.591Z,7.11
2022-11-02T05:59:35.798Z,7.13
2022-11-02T06:01:10.035Z,7.13
2022-11-02T06:02:43.259Z,7.15
2022-11-02T06:04:16.529Z,7.26
2022-11-02T06:05:48.727Z,7.31
2022-11-02T06:07:22.072Z,7.40
2022-11-02T06:08:55.890Z,7.46
2022-11-02T06:10:31.756Z,7.50
2022-11-02T06:12:05.361Z,7.62
2022-11-02T06:13:39.059Z,7.65
2022-11-02T06:15:12.365Z,7.75
2022-11-02T06:16:45.843Z,7.85
2022-11-02T06:18:18.076Z,7.93
2022-11-02T06:19:51.227Z,8.02
2022-11-02T06:21:24.527Z,8.11
2022-11-02T06:22:57.915Z,8.23
2022-11-02T06:24:31.136Z,8.50
2022-11-02T06:26:05.770Z,8.88
2022-11-02T06:27:42.153Z,9.23
2022-11-02T06:29:18.365Z,9.65
2022-11-02T06:30:52.045Z,10.08
2022-11-02T06:32:25.331Z,10.55
2022-11-02T06:33:58.470Z,10.96
2022-11-02T06:35:31.856Z,11.34
2022-11-02T06:37:05.117Z,11.72
2022-11-02T06:38:38.737Z,12.04
2022-11-02T06:40:13.621Z,12.36
2022-11-02T06:41:49.769Z,12.69
2022-11-02T06:43:23.308Z,13.09
2022-11-02T06:45:02.369Z,13.41
2022-11-02T06:46:35.522Z,13.76
2022-11-02T06:48:09.009Z,13.99
2022-11-02T06:49:42.228Z,14.22
2022-11-02T06:51:15.623Z,14.44
2022-11-02T06:52:49.540Z,14.62
2022-11-02T06:54:23.031Z,14.93
2022-11-02T06:55:57.666Z,15.23
2022-11-02T06:57:37.034Z,15.53
2022-11-02T06:59:10.495Z,15.88
2022-11-02T07:00:43.901Z,16.08
2022-11-02T07:02:17.205Z,16.13
2022-11-02T07:03:50.456Z,16.40
2022-11-02T07:05:23.585Z,16.57
2022-11-02T07:06:57.004Z,16.61
2022-11-02T07:08:30.677Z,16.85
2022-11-02T07:10:04.779Z,16.78
2022-11-02T07:11:37.922Z,16.83
2022-11-02T07:13:12.941Z,17.20
2022-11-02T07:14:46.113Z,17.34
2022-11-02T07:16:19.343Z,17.38
2022-11-02T07:17:53.464Z,17.46
2022-11-02T07:19:27.145Z,17.51
2022-11-02T07:21:00.463Z,17.63
2022-11-02T07:22:33.798Z,17.63
2022-11-02T07:24:07.815Z,17.67
2022-11-02T07:25:41.611Z,17.48
2022-11-02T07:27:14.839Z,17.71
2022-11-02T07:28:49.399Z,17.99
2022-11-02T07:30:22.559Z,18.23
2022-11-02T07:31:56.089Z,18.44
2022-11-02T07:33:29.281Z,18.64
2022-11-02T07:35:02.411Z,18.80
2022-11-02T07:36:35.761Z,18.89
2022-11-02T07:38:09.353Z,18.88
2022-11-02T07:39:42.559Z,19.04
2022-11-02T07:41:15.737Z,19.26
2022-11-02T07:42:48.917Z,19.45
2022-11-02T07:44:26.721Z,19.41
2022-11-02T07:45:59.887Z,19.32
2022-11-02T07:47:33.311Z,19.53
2022-11-02T07:49:06.485Z,19.82
2022-11-02T07:50:39.872Z,20.15
2022-11-02T07:52:13.037Z,20.23
2022-11-02T07:53:46.224Z,20.43
2022-11-02T07:55:21.626Z,20.42
2022-11-02T07:56:54.948Z,19.74
2022-11-02T07:58:28.106Z,19.33
2022-11-02T08:00:02.826Z,19.46
2022-11-02T08:01:44.773Z,19.84
2022-11-02T08:03:18.121Z,19.96
2022-11-02T08:04:51.379Z,20.26
2022-11-02T08:06:24.544Z,20.40
2022-11-02T08:07:59.064Z,20.00
2022-11-02T08:09:32.531Z,20.20
2022-11-02T08:11:08.045Z,20.29
2022-11-02T08:12:41.407Z,20.41
2022-11-02T08:14:14.688Z,20.60
2022-11-02T08:15:52.179Z,20.61
2022-11-02T08:17:25.528Z,20.86
2022-11-02T08:18:59.632Z,21.11
2022-11-02T08:20:33.873Z,21.41
2022-11-02T08:22:07.330Z,21.84
2022-11-02T08:23:40.498Z,22.11
2022-11-02T08:26:54.800Z,22.24
2022-11-02T08:28:31.697Z,22.33
2022-11-02T08:30:06.509Z,22.35
2022-11-02T08:31:41.176Z,22.55
2022-11-02T08:33:15.955Z,22.72
2022-11-02T08:34:49.368Z,22.83
2022-11-02T08:36:22.739Z,22.79
2022-11-02T08:37:56.821Z,22.92
2022-11-02T08:39:30.177Z,23.19
2022-11-02T08:41:03.408Z,23.46
2022-11-02T08:42:39.040Z,23.73
2022-11-02T08:44:12.220Z,24.04
2022-11-02T08:46:13.838Z,24.04
2022-11-02T08:47:43.273Z,23.99
2022-11-02T08:49:18.817Z,24.09
2022-11-02T08:50:52.063Z,24.18
2022-11-02T08:52:25.231Z,24.19
2022-11-02T08:53:58.433Z,24.25
2022-11-02T08:55:32.039Z,24.36
2022-11-02T08:57:05.282Z,24.50
2022-11-02T08:58:38.399Z,24.70
2022-11-02T09:00:12.890Z,24.83
2022-11-02T09:01:46.285Z,25.02
2022-11-02T09:03:26.159Z,25.07
2022-11-02T09:05:00.193Z,25.04
2022-11-02T09:06:33.380Z,24.94
2022-11-02T09:08:08.616Z,25.06
2022-11-02T09:09:41.971Z,25.31
2022-11-02T09:11:15.303Z,25.37
2022-11-02T09:12:48.420Z,25.10
2022-11-02T09:14:22.202Z,24.48
2022-11-02T09:15:57.239Z,23.88
2022-11-02T09:17:30.542Z,23.56
2022-11-02T09:19:05.349Z,23.13
2022-11-02T09:20:38.836Z,22.68
2022-11-02T09:22:12.039Z,22.29
2022-11-02T09:23:48.396Z,22.10
2022-11-02T09:25:21.745Z,22.03
2022-11-02T09:26:54.963Z,21.93
2022-11-02T09:28:28.181Z,21.88
2022-11-02T09:30:01.392Z,21.82
2022-11-02T09:31:34.802Z,21.75
2022-11-02T09:33:08.856Z,21.66
2022-11-02T09:34:43.612Z,21.60
2022-11-02T09:36:16.818Z,21.56
2022-11-02T09:37:51.157Z,21.52
2022-11-02T09:39:25.147Z,21.56
2022-11-02T09:41:09.888Z,21.61
2022-11-02T09:42:54.735Z,21.56
2022-11-02T09:44:36.668Z,21.60
2022-11-02T09:46:13.537Z,21.59
2022-11-02T09:49:47.234Z,21.51
2022-11-02T09:51:23.499Z,21.58
2022-11-02T09:53:01.949Z,21.66
2022-11-02T09:54:41.811Z,21.66
2022-11-02T09:56:17.636Z,21.74
2022-11-02T09:57:54.757Z,21.83
2022-11-02T09:59:28.895Z,21.92
2022-11-02T10:01:18.373Z,22.04
2022-11-02T10:03:01.944Z,22.12
2022-11-02T10:05:00.749Z,22.18
2022-11-02T10:06:38.458Z,22.20
2022-11-02T10:08:36.143Z,22.35
2022-11-02T10:10:16.076Z,22.43
2022-11-02T10:11:56.431Z,22.50
2022-11-02T10:13:42.095Z,22.62
2022-11-02T10:15:18.537Z,22.75
2022-11-02T10:16:58.775Z,22.89
2022-11-02T10:18:32.612Z,23.01
2022-11-02T10:20:18.213Z,22.99
2022-11-02T10:21:57.516Z,23.08
2022-11-02T10:23:33.877Z,23.18
2022-11-02T10:25:09.140Z,23.27
2022-11-02T10:26:43.633Z,23.38
2022-11-02T10:28:22.391Z,23.51
2022-11-02T10:30:00.934Z,23.61
2022-11-02T10:31:35.650Z,23.72
2022-11-02T10:33:16.243Z,23.84
2022-11-02T10:34:58.857Z,23.95
2022-11-02T10:36:53.083Z,24.15
2022-11-02T10:38:39.243Z,24.29
2022-11-02T10:40:24.126Z,24.38
2022-11-02T10:42:19.547Z,24.54
2022-11-02T10:44:09.127Z,24.70
2022-11-02T10:46:16.503Z,24.84
2022-11-02T10:48:04.466Z,24.96
2022-11-02T10:50:11.941Z,25.06
2022-11-02T10:51:47.072Z,25.17
2022-11-02T10:55:25.802Z,25.48
2022-11-02T10:57:00.214Z,25.60
2022-11-02T10:58:35.102Z,25.80
2022-11-02T11:00:24.168Z,25.94
2022-11-02T11:02:13.635Z,25.98
2022-11-02T11:03:58.817Z,26.07
2022-11-02T11:05:32.807Z,26.19
2022-11-02T11:07:14.506Z,26.28
2022-11-02T11:08:49.933Z,26.38
2022-11-02T11:10:25.604Z,26.41
2022-11-02T11:12:01.184Z,26.43
2022-11-02T11:15:48.366Z,26.46
2022-11-02T11:19:39.996Z,26.45
2022-11-02T11:21:14.854Z,26.47
2022-11-02T11:23:09.609Z,26.43
2022-11-02T11:24:42.882Z,26.49
2022-11-02T11:26:29.342Z,26.49
2022-11-02T11:28:03.034Z,26.58
2022-11-02T11:29:40.324Z,26.66
2022-11-02T11:31:16.847Z,26.64
2022-11-02T11:32:50.250Z,26.60
2022-11-02T11:34:27.420Z,26.64
2022-11-02T11:36:01.303Z,26.66
2022-11-02T11:37:34.947Z,26.57
2022-11-02T11:39:28.752Z,26.56
2022-11-02T11:41:03.552Z,26.55
2022-11-02T11:42:38.428Z,26.58
2022-11-02T11:44:15.060Z,26.56
2022-11-02T11:46:03.732Z,26.56
2022-11-02T11:47:41.519Z,26.55
2022-11-02T11:49:35.855Z,26.59
2022-11-02T11:51:36.897Z,26.58
2022-11-02T11:53:17.607Z,26.63
2022-11-02T11:54:59.982Z,26.71
2022-11-02T11:56:33.782Z,26.71
2022-11-02T11:58:08.428Z,26.74
2022-11-02T11:59:53.069Z,26.75
2022-11-02T12:01:26.737Z,26.73
2022-11-02T12:03:06.197Z,26.71
2022-11-02T12:04:40.753Z,26.74
2022-11-02T12:06:21.599Z,26.70
2022-11-02T12:08:21.567Z,26.71
2022-11-02T12:10:07.595Z,26.77
2022-11-02T12:11:54.778Z,26.80
2022-11-02T12:13:53.050Z,26.76
2022-11-02T12:15:39.773Z,26.84
2022-11-02T12:17:28.978Z,26.89
2022-11-02T12:19:19.750Z,26.88
2022-11-02T12:21:05.701Z,26.90
2022-11-02T12:22:46.185Z,26.91
2022-11-02T12:24:58.543Z,26.85
2022-11-02T12:26:44.889Z,26.89
2022-11-02T12:28:30.003Z,26.91
2022-11-02T12:30:14.673Z,26.92
2022-11-02T12:32:00.652Z,26.98
2022-11-02T12:33:47.600Z,26.98
2022-11-02T12:35:40.256Z,26.98
2022-11-02T12:37:40.032Z,26.90
2022-11-02T12:39:22.933Z,26.96
2022-11-02T12:41:03.451Z,26.94
2022-11-02T12:42:43.840Z,26.97
2022-11-02T12:44:38.565Z,26.97
2022-11-02T12:46:32.807Z,26.97
2022-11-02T12:48:15.837Z,26.92
2022-11-02T12:49:56.786Z,26.93
2022-11-02T12:51:35.163Z,26.96
2022-11-02T12:53:23.133Z,26.82
2022-11-02T12:54:58.966Z,26.96
2022-11-02T12:56:40.517Z,26.91
2022-11-02T12:58:21.720Z,26.86
2022-11-02T13:00:00.898Z,26.83
2022-11-02T13:01:40.828Z,26.85
2022-11-02T13:03:27.539Z,26.88
2022-11-02T13:05:05.427Z,26.91
2022-11-02T13:06:42.024Z,26.96
2022-11-02T13:08:19.103Z,26.95
2022-11-02T13:09:57.583Z,26.92
2022-11-02T13:11:35.395Z,26.87
2022-11-02T13:13:15.169Z,26.91
2022-11-02T13:14:52.181Z,26.91
2022-11-02T13:16:34.336Z,26.90
2022-11-02T13:18:14.281Z,26.88
2022-11-02T13:19:53.302Z,26.81
2022-11-02T13:21:38.498Z,26.76
2022-11-02T13:23:24.357Z,26.72
2022-11-02T13:25:03.684Z,26.72
2022-11-02T13:26:41.541Z,26.72
2022-11-02T13:28:19.416Z,26.66
2022-11-02T13:29:57.950Z,26.71
2022-11-02T13:31:35.778Z,26.72
2022-11-02T13:33:17.108Z,26.71
2022-11-02T13:34:53.772Z,26.67
2022-11-02T13:36:27.277Z,26.60
2022-11-02T13:38:07.054Z,26.59
2022-11-02T13:39:43.418Z,26.55
2022-11-02T13:41:31.104Z,26.48
2022-11-02T13:43:39.195Z,26.45
2022-11-02T13:47:28.802Z,26.33
2022-11-02T13:49:06.147Z,26.29
2022-11-02T13:50:43.862Z,26.27
2022-11-02T13:52:20.383Z,26.24
2022-11-02T13:53:59.782Z,26.21
2022-11-02T13:55:45.835Z,26.18
2022-11-02T13:57:32.548Z,26.16
2022-11-02T13:59:09.395Z,26.13
2022-11-02T14:00:46.609Z,26.08
2022-11-02T14:02:24.401Z,26.10
2022-11-02T14:04:03.061Z,26.07
2022-11-02T14:05:42.307Z,26.02
2022-11-02T14:07:24.595Z,25.98
2022-11-02T14:09:00.745Z,25.95
2022-11-02T14:10:37.880Z,25.94
2022-11-02T14:12:40.614Z,25.89
2022-11-02T14:14:31.513Z,25.83
2022-11-02T14:16:06.620Z,25.84
2022-11-02T14:18:11.467Z,25.92
2022-11-02T14:19:56.942Z,25.97
2022-11-02T14:21:44.830Z,25.92
2022-11-02T14:23:40.891Z,25.85
2022-11-02T14:25:19.307Z,25.73
2022-11-02T14:26:56.848Z,25.76
2022-11-02T14:28:35.974Z,25.76
2022-11-02T14:30:38.883Z,25.74
2022-11-02T14:32:19.821Z,25.65
2022-11-02T14:34:13.888Z,25.55
2022-11-02T14:35:55.731Z,25.48
2022-11-02T14:37:48.805Z,25.43
2022-11-02T14:39:32.661Z,25.37
2022-11-02T14:41:23.317Z,25.29
2022-11-02T14:43:32.020Z,25.22
2022-11-02T14:45:23.348Z,25.15
2022-11-02T14:46:59.136Z,25.08
2022-11-02T14:48:46.051Z,25.00
2022-11-02T14:50:21.652Z,24.87
2022-11-02T14:52:04.531Z,24.78
2022-11-02T14:53:38.912Z,24.66
2022-11-02T14:55:24.820Z,24.52
2022-11-02T14:57:04.266Z,24.41
2022-11-02T14:58:41.524Z,24.27
2022-11-02T15:00:21.062Z,24.10
2022-11-02T15:01:58.496Z,23.96
2022-11-02T15:03:38.447Z,23.83
2022-11-02T15:05:24.475Z,23.67
2022-11-02T15:07:00.791Z,23.56
2022-11-02T15:08:36.505Z,23.46
2022-11-02T15:10:48.319Z,23.33
2022-11-02T15:12:30.570Z,23.19
2022-11-02T15:14:04.134Z,23.06
2022-11-02T15:15:37.888Z,22.98
2022-11-02T15:17:44.289Z,22.84
2022-11-02T15:19:39.643Z,22.68
2022-11-02T15:21:30.891Z,22.55
2022-11-02T15:23:28.507Z,22.42
2022-11-02T15:25:13.108Z,22.29
2022-11-02T15:26:51.070Z,22.16
2022-11-02T15:28:26.702Z,22.04
2022-11-02T15:30:02.539Z,21.93
2022-11-02T15:31:36.797Z,21.85
2022-11-02T15:33:20.951Z,21.75
2022-11-02T15:34:58.126Z,21.66
2022-11-02T15:36:36.721Z,21.55
2022-11-02T15:38:17.763Z,21.38
2022-11-02T15:39:52.989Z,21.26
2022-11-02T15:41:33.118Z,21.17
2022-11-02T15:43:19.649Z,21.06
2022-11-02T15:45:46.845Z,20.95
2022-11-02T15:47:27.149Z,20.79
2022-11-02T15:49:12.977Z,20.71
2022-11-02T15:50:56.043Z,20.61
2022-11-02T15:53:02.023Z,20.55
2022-11-02T15:54:53.798Z,20.44
2022-11-02T15:56:40.110Z,20.34
2022-11-02T15:58:23.925Z,20.25
2022-11-02T16:00:08.087Z,20.06
2022-11-02T16:01:44.843Z,20.03
2022-11-02T16:03:19.385Z,19.94
2022-11-02T16:04:56.167Z,19.86
2022-11-02T16:06:35.995Z,19.76
2022-11-02T16:08:23.460Z,19.64
2022-11-02T16:10:12.826Z,19.55
2022-11-02T16:11:45.991Z,19.47
2022-11-02T16:13:22.224Z,19.40
2022-11-02T16:14:59.011Z,19.31
2022-11-02T16:16:35.914Z,19.21
2022-11-02T16:18:27.055Z,19.17
2022-11-02T16:20:11.991Z,19.10
2022-11-02T16:21:46.630Z,18.98
2022-11-02T16:23:25.343Z,18.96
2022-11-02T16:24:58.624Z,18.91
2022-11-02T16:26:31.837Z,18.87
2022-11-02T16:28:15.211Z,18.72
2022-11-02T16:29:49.668Z,18.73
2022-11-02T16:31:25.203Z,18.71
2022-11-02T16:33:02.058Z,18.65
2022-11-02T16:34:35.454Z,18.53
2022-11-02T16:36:09.980Z,18.48
2022-11-02T16:37:45.515Z,18.45
2022-11-02T16:39:23.751Z,18.39
2022-11-02T16:40:57.214Z,18.34
2022-11-02T16:42:30.432Z,18.30
2022-11-02T16:44:10.027Z,18.28
2022-11-02T16:45:44.213Z,18.15
2022-11-02T16:47:19.125Z,18.12
2022-11-02T16:49:04.195Z,18.09
2022-11-02T16:50:37.599Z,18.04
2022-11-02T16:52:21.715Z,17.94
2022-11-02T16:53:56.263Z,17.76
2022-11-02T16:55:41.995Z,17.73
2022-11-02T16:57:19.519Z,17.69
2022-11-02T16:58:59.603Z,17.61
2022-11-02T17:00:32.976Z,17.59
2022-11-02T17:02:13.084Z,17.54
2022-11-02T17:03:46.661Z,17.50
2022-11-02T17:05:23.059Z,17.45
2022-11-02T17:07:13.266Z,17.37
2022-11-02T17:08:53.156Z,17.30
2022-11-02T17:10:30.117Z,17.22
2022-11-02T17:12:08.939Z,17.22
2022-11-02T17:13:47.741Z,17.14
2022-11-02T17:15:23.803Z,17.10
2022-11-02T17:17:02.618Z,17.02
2022-11-02T17:18:36.556Z,16.99
2022-11-02T17:20:22.169Z,16.96
2022-11-02T17:22:06.509Z,16.92
2022-11-02T17:23:41.497Z,16.80
2022-11-02T17:25:21.987Z,16.78
2022-11-02T17:27:20.140Z,16.71
2022-11-02T17:28:54.607Z,16.64
2022-11-02T17:30:48.624Z,16.58
2022-11-02T17:32:23.131Z,16.52
2022-11-02T17:33:59.851Z,16.42
2022-11-02T17:35:33.151Z,16.37
2022-11-02T17:37:07.799Z,16.31
2022-11-02T17:38:41.465Z,16.19
2022-11-02T17:40:15.168Z,16.11
2022-11-02T17:42:11.565Z,16.06
2022-11-02T17:43:46.154Z,16.00
2022-11-02T17:45:28.502Z,15.94
2022-11-02T17:47:02.220Z,15.91
2022-11-02T17:48:35.550Z,15.85
2022-11-02T17:50:09.808Z,15.81
2022-11-02T17:51:43.722Z,15.74
2022-11-02T17:53:17.539Z,15.72
2022-11-02T17:54:50.797Z,15.66
2022-11-02T17:56:23.955Z,15.50
2022-11-02T17:57:58.251Z,15.49
2022-11-02T17:59:32.957Z,15.42
2022-11-02T18:01:07.061Z,15.31
2022-11-02T18:02:40.950Z,15.21
2022-11-02T18:04:14.186Z,15.16
2022-11-02T18:05:50.128Z,15.09
2022-11-02T18:07:25.060Z,15.05
2022-11-02T18:09:14.726Z,14.98
2022-11-02T18:10:49.464Z,14.94
2022-11-02T18:12:22.699Z,14.79
2022-11-02T18:13:55.828Z,14.83
2022-11-02T18:15:33.554Z,14.79
2022-11-02T18:17:06.995Z,14.76
2022-11-02T18:18:40.201Z,14.73
2022-11-02T18:20:14.858Z,14.71
2022-11-02T18:21:48.115Z,14.65
2022-11-02T18:23:21.409Z,14.65
2022-11-02T18:24:54.664Z,14.61
2022-11-02T18:26:27.855Z,14.54
2022-11-02T18:28:02.624Z,14.48
2022-11-02T18:29:36.021Z,14.50
2022-11-02T18:31:10.823Z,14.49
2022-11-02T18:32:46.194Z,14.49
2022-11-02T18:34:19.409Z,14.40
2022-11-02T18:35:52.827Z,14.18
2022-11-02T18:37:26.139Z,14.06
2022-11-02T18:38:59.420Z,13.97
2022-11-02T18:40:35.332Z,13.85
2022-11-02T18:42:09.088Z,13.80
2022-11-02T18:43:42.267Z,13.77
2022-11-02T18:45:16.820Z,13.77
2022-11-02T18:46:51.435Z,13.80
2022-11-02T18:48:25.215Z,13.85
2022-11-02T18:49:58.466Z,13.80
2022-11-02T18:51:31.873Z,13.73
2022-11-02T18:53:05.017Z,13.83
2022-11-02T18:54:38.574Z,13.94
2022-11-02T18:56:12.561Z,14.00
2022-11-02T18:57:46.276Z,13.95
2022-11-02T18:59:19.533Z,14.01
2022-11-02T19:00:53.016Z,13.94
2022-11-02T19:02:27.796Z,13.77
2022-11-02T19:04:01.921Z,13.73
2022-11-02T19:05:52.485Z,13.77
2022-11-02T19:07:43.632Z,13.70
2022-11-02T19:09:21.577Z,13.72
2022-11-02T19:10:54.739Z,13.77
2022-11-02T19:12:30.132Z,13.76
2022-11-02T19:14:05.168Z,13.66
2022-11-02T19:15:42.338Z,13.57
2022-11-02T19:17:16.487Z,13.56
2022-11-02T19:18:51.504Z,13.59
2022-11-02T19:20:24.652Z,13.61
2022-11-02T19:21:58.238Z,13.49
2022-11-02T19:23:31.516Z,13.47
2022-11-02T19:25:05.370Z,13.53
2022-11-02T19:26:38.766Z,13.57
2022-11-02T19:28:12.074Z,13.60
2022-11-02T19:29:45.248Z,13.54
2022-11-02T19:31:18.841Z,13.55
2022-11-02T19:32:52.033Z,13.62
2022-11-02T19:34:26.644Z,13.62
2022-11-02T19:35:59.863Z,13.58
2022-11-02T19:37:34.715Z,13.56
2022-11-02T19:39:09.340Z,13.52
2022-11-02T19:40:42.595Z,13.35
2022-11-02T19:42:15.722Z,13.30
2022-11-02T19:43:49.075Z,13.30
2022-11-02T19:45:22.262Z,13.31
2022-11-02T19:46:55.461Z,13.24
2022-11-02T19:48:27.694Z,13.25
2022-11-02T19:50:02.421Z,13.26
2022-11-02T19:51:36.177Z,13.22
2022-11-02T19:53:09.378Z,13.15
2022-11-02T19:54:42.571Z,13.11
2022-11-02T19:56:17.256Z,13.12
2022-11-02T19:57:50.499Z,13.09
2022-11-02T19:59:23.737Z,13.07
2022-11-02T20:00:57.055Z,13.02
2022-11-02T20:02:30.591Z,12.89
2022-11-02T20:04:04.697Z,12.78
2022-11-02T20:05:40.028Z,12.72
2022-11-02T20:07:13.259Z,12.59
2022-11-02T20:08:49.737Z,12.56
2022-11-02T20:10:22.942Z,12.59
2022-11-02T20:11:56.151Z,12.58
2022-11-02T20:13:29.328Z,12.61
2022-11-02T20:15:02.982Z,12.57
2022-11-02T20:16:36.193Z,12.57
2022-11-02T20:18:20.216Z,12.54
2022-11-02T20:19:53.745Z,12.51
2022-11-02T20:21:35.473Z,12.50
2022-11-02T20:23:11.340Z,12.61
2022-11-02T20:24:44.617Z,12.73
2022-11-02T20:26:19.914Z,12.79
2022-11-02T20:27:53.364Z,12.84
2022-11-02T20:29:26.580Z,12.87
2022-11-02T20:30:59.995Z,12.89
2022-11-02T20:32:33.152Z,12.82
2022-11-02T20:34:08.700Z,12.82
2022-11-02T20:35:45.858Z,12.75
2022-11-02T20:37:20.486Z,12.73
2022-11-02T20:38:54.290Z,12.73
2022-11-02T20:40:28.825Z,12.73
2022-11-02T20:42:02.001Z,12.66
2022-11-02T20:43:35.986Z,12.58
2022-11-02T20:45:10.008Z,12.60
2022-11-02T20:46:52.696Z,12.64
2022-11-02T20:48:26.774Z,12.67
2022-11-02T20:50:00.443Z,12.70
2022-11-02T20:51:33.882Z,12.78
2022-11-02T20:53:08.867Z,12.90
2022-11-02T20:54:42.149Z,12.97
2022-11-02T20:56:15.496Z,13.00
2022-11-02T20:57:49.887Z,13.13
2022-11-02T20:59:23.521Z,13.26
2022-11-02T21:00:56.936Z,13.28
2022-11-02T21:02:30.252Z,13.43
2022-11-02T21:04:03.572Z,13.52
2022-11-02T21:05:36.830Z,13.56
2022-11-02T21:07:10.023Z,13.58
2022-11-02T21:08:44.605Z,13.61
2022-11-02T21:10:18.435Z,13.59
2022-11-02T21:12:09.070Z,13.50
2022-11-02T21:13:53.102Z,13.37
2022-11-02T21:15:26.227Z,13.27
2022-11-02T21:16:59.515Z,13.24
2022-11-02T21:18:33.899Z,13.14
2022-11-02T21:22:03.388Z,12.85
2022-11-02T21:23:36.830Z,12.86
2022-11-02T21:25:12.619Z,12.88
2022-11-02T21:26:45.739Z,12.85
2022-11-02T21:28:19.092Z,12.89